sensor_id;sensor_type;location;lat;lon;timestamp;P1;durP1;ratioP1;P2;durP2;ratioP2
69172;SDS011;56280;49.662;8.408;2023-09-08T00:02:02;11.67;;;7.60;;
69172;SDS011;56280;49.662;8.408;2023-09-08T00:04:28;11.13;;;7.70;;
69172;SDS011;56280;49.662;8.408;2023-09-08T00:06:53;10.33;;;7.50;;
69172;SDS011;56280;49.662;8.408;2023-09-08T00:09:18;11.20;;;7.45;;
69172;SDS011;56280;49.662;8.408;2023-09-08T00:11:43;12.33;;;7.97;;
69172;SDS011;56280;49.662;8.408;2023-09-08T00:14:09;13.40;;;8.10;;
69172;SDS011;56280;49.662;8.408;2023-09-08T00:16:34;14.03;;;7.80;;
69172;SDS011;56280;49.662;8.408;2023-09-08T00:18:59;10.73;;;7.47;;
69172;SDS011;56280;49.662;8.408;2023-09-08T00:21:25;11.83;;;7.90;;
69172;SDS011;56280;49.662;8.408;2023-09-08T00:23:51;9.82;;;6.80;;
69172;SDS011;56280;49.662;8.408;2023-09-08T00:26:17;11.50;;;7.30;;
69172;SDS011;56280;49.662;8.408;2023-09-08T00:28:42;11.37;;;7.20;;
69172;SDS011;56280;49.662;8.408;2023-09-08T00:31:07;11.85;;;7.47;;
69172;SDS011;56280;49.662;8.408;2023-09-08T00:33:32;11.70;;;7.77;;
69172;SDS011;56280;49.662;8.408;2023-09-08T00:35:58;12.33;;;7.73;;
69172;SDS011;56280;49.662;8.408;2023-09-08T00:38:23;10.52;;;7.47;;
69172;SDS011;56280;49.662;8.408;2023-09-08T00:40:49;11.20;;;8.02;;
69172;SDS011;56280;49.662;8.408;2023-09-08T00:43:14;11.10;;;7.53;;
69172;SDS011;56280;49.662;8.408;2023-09-08T00:45:42;12.97;;;7.70;;
69172;SDS011;56280;49.662;8.408;2023-09-08T00:48:09;13.13;;;8.05;;
69172;SDS011;56280;49.662;8.408;2023-09-08T00:50:35;12.77;;;8.10;;
69172;SDS011;56280;49.662;8.408;2023-09-08T00:53:02;11.98;;;7.93;;
69172;SDS011;56280;49.662;8.408;2023-09-08T00:55:28;11.52;;;8.00;;
69172;SDS011;56280;49.662;8.408;2023-09-08T00:57:53;11.57;;;7.70;;
69172;SDS011;56280;49.662;8.408;2023-09-08T01:00:19;12.07;;;8.03;;
69172;SDS011;56280;49.662;8.408;2023-09-08T01:02:44;12.83;;;8.37;;
69172;SDS011;56280;49.662;8.408;2023-09-08T01:05:10;12.67;;;8.03;;
69172;SDS011;56280;49.662;8.408;2023-09-08T01:07:35;11.23;;;8.02;;
69172;SDS011;56280;49.662;8.408;2023-09-08T01:10:01;13.70;;;8.07;;
69172;SDS011;56280;49.662;8.408;2023-09-08T01:12:29;11.48;;;7.90;;
69172;SDS011;56280;49.662;8.408;2023-09-08T01:14:54;11.87;;;8.17;;
69172;SDS011;56280;49.662;8.408;2023-09-08T01:17:20;12.00;;;8.03;;
69172;SDS011;56280;49.662;8.408;2023-09-08T01:19:45;12.93;;;8.00;;
69172;SDS011;56280;49.662;8.408;2023-09-08T01:25:05;11.15;;;8.00;;
69172;SDS011;56280;49.662;8.408;2023-09-08T01:27:37;11.10;;;8.23;;
69172;SDS011;56280;49.662;8.408;2023-09-08T01:30:05;12.23;;;7.83;;
69172;SDS011;56280;49.662;8.408;2023-09-08T01:32:32;11.93;;;7.90;;
69172;SDS011;56280;49.662;8.408;2023-09-08T01:34:58;12.90;;;8.05;;
69172;SDS011;56280;49.662;8.408;2023-09-08T01:37:25;13.77;;;8.40;;
69172;SDS011;56280;49.662;8.408;2023-09-08T01:39:50;10.98;;;7.63;;
69172;SDS011;56280;49.662;8.408;2023-09-08T01:42:16;12.10;;;8.30;;
69172;SDS011;56280;49.662;8.408;2023-09-08T01:44:41;12.07;;;7.90;;
69172;SDS011;56280;49.662;8.408;2023-09-08T01:47:06;12.03;;;8.17;;
69172;SDS011;56280;49.662;8.408;2023-09-08T01:49:31;12.03;;;7.83;;
69172;SDS011;56280;49.662;8.408;2023-09-08T01:51:57;12.27;;;7.90;;
69172;SDS011;56280;49.662;8.408;2023-09-08T01:54:22;12.00;;;8.10;;
69172;SDS011;56280;49.662;8.408;2023-09-08T01:56:47;11.90;;;8.00;;
69172;SDS011;56280;49.662;8.408;2023-09-08T01:59:12;11.90;;;8.13;;
69172;SDS011;56280;49.662;8.408;2023-09-08T02:01:38;12.15;;;7.82;;
69172;SDS011;56280;49.662;8.408;2023-09-08T02:04:03;11.30;;;7.68;;
69172;SDS011;56280;49.662;8.408;2023-09-08T02:06:29;11.03;;;7.30;;
69172;SDS011;56280;49.662;8.408;2023-09-08T02:08:54;10.87;;;7.67;;
69172;SDS011;56280;49.662;8.408;2023-09-08T02:11:19;11.53;;;7.93;;
69172;SDS011;56280;49.662;8.408;2023-09-08T02:13:44;12.75;;;8.20;;
69172;SDS011;56280;49.662;8.408;2023-09-08T02:16:16;10.95;;;7.88;;
69172;SDS011;56280;49.662;8.408;2023-09-08T02:18:41;12.98;;;8.43;;
69172;SDS011;56280;49.662;8.408;2023-09-08T02:21:08;12.82;;;8.55;;
69172;SDS011;56280;49.662;8.408;2023-09-08T02:30:17;12.13;;;8.32;;
69172;SDS011;56280;49.662;8.408;2023-09-08T02:32:42;12.93;;;8.87;;
69172;SDS011;56280;49.662;8.408;2023-09-08T02:35:08;11.87;;;8.63;;
69172;SDS011;56280;49.662;8.408;2023-09-08T02:37:33;12.80;;;8.00;;
69172;SDS011;56280;49.662;8.408;2023-09-08T02:39:58;13.33;;;8.53;;
69172;SDS011;56280;49.662;8.408;2023-09-08T02:42:24;11.33;;;7.87;;
69172;SDS011;56280;49.662;8.408;2023-09-08T02:44:49;12.20;;;7.80;;
69172;SDS011;56280;49.662;8.408;2023-09-08T02:47:14;11.27;;;7.67;;
69172;SDS011;56280;49.662;8.408;2023-09-08T02:49:39;12.70;;;7.50;;
69172;SDS011;56280;49.662;8.408;2023-09-08T02:52:05;12.73;;;7.60;;
69172;SDS011;56280;49.662;8.408;2023-09-08T02:54:30;12.93;;;7.60;;
69172;SDS011;56280;49.662;8.408;2023-09-08T02:56:55;11.03;;;7.60;;
69172;SDS011;56280;49.662;8.408;2023-09-08T02:59:20;10.87;;;7.70;;
69172;SDS011;56280;49.662;8.408;2023-09-08T03:01:46;12.20;;;7.95;;
69172;SDS011;56280;49.662;8.408;2023-09-08T03:04:11;14.27;;;8.87;;
69172;SDS011;56280;49.662;8.408;2023-09-08T03:06:37;11.65;;;8.20;;
69172;SDS011;56280;49.662;8.408;2023-09-08T03:09:02;13.47;;;8.30;;
69172;SDS011;56280;49.662;8.408;2023-09-08T03:11:27;12.97;;;8.30;;
69172;SDS011;56280;49.662;8.408;2023-09-08T03:13:53;12.50;;;8.43;;
69172;SDS011;56280;49.662;8.408;2023-09-08T03:16:18;11.53;;;7.93;;
69172;SDS011;56280;49.662;8.408;2023-09-08T03:18:44;12.23;;;8.47;;
69172;SDS011;56280;49.662;8.408;2023-09-08T03:21:09;12.50;;;8.37;;
69172;SDS011;56280;49.662;8.408;2023-09-08T03:23:42;12.07;;;8.40;;
69172;SDS011;56280;49.662;8.408;2023-09-08T03:26:09;12.20;;;7.97;;
69172;SDS011;56280;49.662;8.408;2023-09-08T03:28:34;11.50;;;7.63;;
69172;SDS011;56280;49.662;8.408;2023-09-08T03:31:01;12.07;;;8.38;;
69172;SDS011;56280;49.662;8.408;2023-09-08T03:33:27;12.35;;;8.15;;
69172;SDS011;56280;49.662;8.408;2023-09-08T03:35:52;11.77;;;7.80;;
69172;SDS011;56280;49.662;8.408;2023-09-08T03:38:17;12.90;;;8.17;;
69172;SDS011;56280;49.662;8.408;2023-09-08T03:40:43;11.73;;;8.33;;
69172;SDS011;56280;49.662;8.408;2023-09-08T03:43:08;11.83;;;8.40;;
69172;SDS011;56280;49.662;8.408;2023-09-08T03:45:33;13.07;;;8.40;;
69172;SDS011;56280;49.662;8.408;2023-09-08T03:47:59;12.67;;;8.17;;
69172;SDS011;56280;49.662;8.408;2023-09-08T03:50:24;10.80;;;8.10;;
69172;SDS011;56280;49.662;8.408;2023-09-08T03:52:49;12.10;;;8.60;;
69172;SDS011;56280;49.662;8.408;2023-09-08T03:55:15;11.30;;;8.27;;
69172;SDS011;56280;49.662;8.408;2023-09-08T03:57:40;12.33;;;8.00;;
69172;SDS011;56280;49.662;8.408;2023-09-08T04:00:05;12.90;;;8.60;;
69172;SDS011;56280;49.662;8.408;2023-09-08T04:02:31;12.10;;;8.30;;
69172;SDS011;56280;49.662;8.408;2023-09-08T04:04:58;13.32;;;8.18;;
69172;SDS011;56280;49.662;8.408;2023-09-08T04:07:23;13.37;;;8.87;;
69172;SDS011;56280;49.662;8.408;2023-09-08T04:09:48;13.13;;;8.70;;
69172;SDS011;56280;49.662;8.408;2023-09-08T04:12:14;12.77;;;8.87;;
69172;SDS011;56280;49.662;8.408;2023-09-08T04:14:39;14.23;;;9.20;;
69172;SDS011;56280;49.662;8.408;2023-09-08T04:17:04;13.87;;;9.30;;
69172;SDS011;56280;49.662;8.408;2023-09-08T04:19:29;13.33;;;9.87;;
69172;SDS011;56280;49.662;8.408;2023-09-08T04:21:55;14.40;;;9.48;;
69172;SDS011;56280;49.662;8.408;2023-09-08T04:24:20;13.90;;;9.77;;
69172;SDS011;56280;49.662;8.408;2023-09-08T04:26:45;15.73;;;10.10;;
69172;SDS011;56280;49.662;8.408;2023-09-08T04:29:10;15.10;;;9.60;;
69172;SDS011;56280;49.662;8.408;2023-09-08T04:31:36;13.90;;;9.70;;
69172;SDS011;56280;49.662;8.408;2023-09-08T04:34:01;14.00;;;9.17;;
69172;SDS011;56280;49.662;8.408;2023-09-08T04:36:26;15.17;;;9.10;;
69172;SDS011;56280;49.662;8.408;2023-09-08T04:38:52;14.10;;;8.90;;
69172;SDS011;56280;49.662;8.408;2023-09-08T04:41:17;12.83;;;9.13;;
69172;SDS011;56280;49.662;8.408;2023-09-08T04:43:45;15.07;;;9.07;;
69172;SDS011;56280;49.662;8.408;2023-09-08T04:46:10;14.02;;;9.00;;
69172;SDS011;56280;49.662;8.408;2023-09-08T04:48:35;13.23;;;9.07;;
69172;SDS011;56280;49.662;8.408;2023-09-08T04:51:00;14.27;;;9.27;;
69172;SDS011;56280;49.662;8.408;2023-09-08T04:53:26;12.30;;;9.00;;
69172;SDS011;56280;49.662;8.408;2023-09-08T04:55:51;13.20;;;9.10;;
69172;SDS011;56280;49.662;8.408;2023-09-08T04:58:17;13.27;;;9.10;;
69172;SDS011;56280;49.662;8.408;2023-09-08T05:00:42;14.00;;;9.20;;
69172;SDS011;56280;49.662;8.408;2023-09-08T05:03:07;11.80;;;8.33;;
69172;SDS011;56280;49.662;8.408;2023-09-08T05:05:33;13.60;;;9.18;;
69172;SDS011;56280;49.662;8.408;2023-09-08T05:07:58;14.57;;;9.40;;
69172;SDS011;56280;49.662;8.408;2023-09-08T05:10:23;13.43;;;9.13;;
69172;SDS011;56280;49.662;8.408;2023-09-08T05:12:49;12.30;;;8.70;;
69172;SDS011;56280;49.662;8.408;2023-09-08T05:15:14;13.07;;;8.70;;
69172;SDS011;56280;49.662;8.408;2023-09-08T05:17:41;11.95;;;8.23;;
69172;SDS011;56280;49.662;8.408;2023-09-08T05:20:07;12.38;;;8.05;;
69172;SDS011;56280;49.662;8.408;2023-09-08T05:22:32;13.15;;;8.40;;
69172;SDS011;56280;49.662;8.408;2023-09-08T05:24:58;14.23;;;8.87;;
69172;SDS011;56280;49.662;8.408;2023-09-08T05:27:23;14.03;;;8.47;;
69172;SDS011;56280;49.662;8.408;2023-09-08T05:29:48;14.00;;;8.53;;
69172;SDS011;56280;49.662;8.408;2023-09-08T05:32:14;11.03;;;8.23;;
69172;SDS011;56280;49.662;8.408;2023-09-08T05:34:39;12.87;;;8.67;;
69172;SDS011;56280;49.662;8.408;2023-09-08T05:37:04;11.87;;;8.57;;
69172;SDS011;56280;49.662;8.408;2023-09-08T05:39:29;12.27;;;8.97;;
69172;SDS011;56280;49.662;8.408;2023-09-08T05:41:55;12.93;;;9.30;;
69172;SDS011;56280;49.662;8.408;2023-09-08T05:44:20;15.93;;;9.07;;
69172;SDS011;56280;49.662;8.408;2023-09-08T05:46:45;12.52;;;9.30;;
69172;SDS011;56280;49.662;8.408;2023-09-08T05:49:10;13.13;;;9.00;;
69172;SDS011;56280;49.662;8.408;2023-09-08T05:51:36;12.87;;;8.50;;
69172;SDS011;56280;49.662;8.408;2023-09-08T05:54:01;13.97;;;8.60;;
69172;SDS011;56280;49.662;8.408;2023-09-08T05:56:30;12.17;;;8.67;;
69172;SDS011;56280;49.662;8.408;2023-09-08T05:58:56;12.17;;;8.67;;
69172;SDS011;56280;49.662;8.408;2023-09-08T06:01:21;12.10;;;8.60;;
69172;SDS011;56280;49.662;8.408;2023-09-08T06:03:46;11.90;;;8.63;;
69172;SDS011;56280;49.662;8.408;2023-09-08T06:06:12;13.10;;;8.50;;
69172;SDS011;56280;49.662;8.408;2023-09-08T06:08:38;10.73;;;7.50;;
69172;SDS011;56280;49.662;8.408;2023-09-08T06:11:03;11.80;;;7.93;;
69172;SDS011;56280;49.662;8.408;2023-09-08T06:13:28;13.97;;;7.40;;
69172;SDS011;56280;49.662;8.408;2023-09-08T06:15:54;10.43;;;7.43;;
69172;SDS011;56280;49.662;8.408;2023-09-08T06:18:19;10.53;;;7.13;;
69172;SDS011;56280;49.662;8.408;2023-09-08T06:20:47;12.53;;;7.40;;
69172;SDS011;56280;49.662;8.408;2023-09-08T06:23:13;12.02;;;6.90;;
69172;SDS011;56280;49.662;8.408;2023-09-08T06:25:39;10.18;;;7.47;;
69172;SDS011;56280;49.662;8.408;2023-09-08T06:28:04;11.40;;;7.40;;
69172;SDS011;56280;49.662;8.408;2023-09-08T06:30:30;10.70;;;7.30;;
69172;SDS011;56280;49.662;8.408;2023-09-08T06:32:55;11.37;;;7.73;;
69172;SDS011;56280;49.662;8.408;2023-09-08T06:35:21;11.70;;;6.97;;
69172;SDS011;56280;49.662;8.408;2023-09-08T06:37:46;13.60;;;7.60;;
69172;SDS011;56280;49.662;8.408;2023-09-08T06:40:11;10.23;;;7.30;;
69172;SDS011;56280;49.662;8.408;2023-09-08T06:42:36;10.83;;;7.20;;
69172;SDS011;56280;49.662;8.408;2023-09-08T06:45:02;10.87;;;7.37;;
69172;SDS011;56280;49.662;8.408;2023-09-08T06:47:27;12.70;;;7.00;;
69172;SDS011;56280;49.662;8.408;2023-09-08T06:49:53;10.23;;;6.83;;
69172;SDS011;56280;49.662;8.408;2023-09-08T06:52:18;12.13;;;7.20;;
69172;SDS011;56280;49.662;8.408;2023-09-08T06:54:43;10.77;;;6.93;;
69172;SDS011;56280;49.662;8.408;2023-09-08T06:57:10;10.05;;;6.78;;
69172;SDS011;56280;49.662;8.408;2023-09-08T06:59:37;10.97;;;6.80;;
69172;SDS011;56280;49.662;8.408;2023-09-08T07:02:02;9.60;;;6.23;;
69172;SDS011;56280;49.662;8.408;2023-09-08T07:04:29;9.70;;;6.82;;
69172;SDS011;56280;49.662;8.408;2023-09-08T07:06:54;10.15;;;6.40;;
69172;SDS011;56280;49.662;8.408;2023-09-08T07:09:20;10.02;;;6.57;;
69172;SDS011;56280;49.662;8.408;2023-09-08T07:11:45;9.05;;;5.90;;
69172;SDS011;56280;49.662;8.408;2023-09-08T07:14:10;9.73;;;5.90;;
69172;SDS011;56280;49.662;8.408;2023-09-08T07:16:36;10.03;;;5.80;;
69172;SDS011;56280;49.662;8.408;2023-09-08T07:19:01;10.00;;;5.90;;
69172;SDS011;56280;49.662;8.408;2023-09-08T07:21:26;8.13;;;5.60;;
69172;SDS011;56280;49.662;8.408;2023-09-08T07:23:52;10.90;;;6.00;;
69172;SDS011;56280;49.662;8.408;2023-09-08T07:26:18;8.77;;;5.60;;
69172;SDS011;56280;49.662;8.408;2023-09-08T07:28:44;9.77;;;5.78;;
69172;SDS011;56280;49.662;8.408;2023-09-08T07:31:10;8.33;;;5.80;;
69172;SDS011;56280;49.662;8.408;2023-09-08T07:33:35;8.50;;;5.80;;
69172;SDS011;56280;49.662;8.408;2023-09-08T07:36:07;10.33;;;5.40;;
69172;SDS011;56280;49.662;8.408;2023-09-08T07:38:34;8.80;;;5.45;;
69172;SDS011;56280;49.662;8.408;2023-09-08T07:40:59;8.18;;;5.15;;
69172;SDS011;56280;49.662;8.408;2023-09-08T07:43:26;9.80;;;5.53;;
69172;SDS011;56280;49.662;8.408;2023-09-08T07:45:52;8.73;;;5.70;;
69172;SDS011;56280;49.662;8.408;2023-09-08T07:48:17;7.20;;;5.17;;
69172;SDS011;56280;49.662;8.408;2023-09-08T07:50:42;9.33;;;5.13;;
69172;SDS011;56280;49.662;8.408;2023-09-08T07:53:08;8.10;;;5.20;;
69172;SDS011;56280;49.662;8.408;2023-09-08T07:55:33;7.70;;;5.17;;
69172;SDS011;56280;49.662;8.408;2023-09-08T07:57:58;9.37;;;5.00;;
69172;SDS011;56280;49.662;8.408;2023-09-08T08:00:24;9.67;;;4.73;;
69172;SDS011;56280;49.662;8.408;2023-09-08T08:02:51;10.23;;;5.30;;
69172;SDS011;56280;49.662;8.408;2023-09-08T08:05:19;9.82;;;5.28;;
69172;SDS011;56280;49.662;8.408;2023-09-08T08:07:44;8.97;;;5.40;;
69172;SDS011;56280;49.662;8.408;2023-09-08T08:10:10;7.93;;;4.97;;
69172;SDS011;56280;49.662;8.408;2023-09-08T08:12:36;10.65;;;5.20;;
69172;SDS011;56280;49.662;8.408;2023-09-08T08:15:02;8.95;;;5.43;;
69172;SDS011;56280;49.662;8.408;2023-09-08T08:17:29;8.18;;;4.90;;
69172;SDS011;56280;49.662;8.408;2023-09-08T08:19:55;7.53;;;4.85;;
69172;SDS011;56280;49.662;8.408;2023-09-08T08:22:20;9.60;;;5.30;;
69172;SDS011;56280;49.662;8.408;2023-09-08T08:24:46;8.17;;;5.10;;
69172;SDS011;56280;49.662;8.408;2023-09-08T08:27:11;8.80;;;5.10;;
69172;SDS011;56280;49.662;8.408;2023-09-08T08:29:36;8.37;;;4.90;;
69172;SDS011;56280;49.662;8.408;2023-09-08T08:32:02;9.00;;;5.00;;
69172;SDS011;56280;49.662;8.408;2023-09-08T08:34:27;9.00;;;4.83;;
69172;SDS011;56280;49.662;8.408;2023-09-08T08:36:53;10.23;;;5.03;;
69172;SDS011;56280;49.662;8.408;2023-09-08T08:39:18;9.00;;;4.93;;
69172;SDS011;56280;49.662;8.408;2023-09-08T08:41:43;10.07;;;4.80;;
69172;SDS011;56280;49.662;8.408;2023-09-08T08:44:09;8.20;;;4.90;;
69172;SDS011;56280;49.662;8.408;2023-09-08T08:46:35;9.50;;;5.18;;
69172;SDS011;56280;49.662;8.408;2023-09-08T08:49:02;8.43;;;4.60;;
69172;SDS011;56280;49.662;8.408;2023-09-08T08:51:28;9.20;;;5.18;;
69172;SDS011;56280;49.662;8.408;2023-09-08T08:53:55;7.22;;;4.95;;
69172;SDS011;56280;49.662;8.408;2023-09-08T08:56:21;8.27;;;5.00;;
69172;SDS011;56280;49.662;8.408;2023-09-08T08:58:48;7.88;;;4.78;;
69172;SDS011;56280;49.662;8.408;2023-09-08T09:01:15;8.27;;;4.83;;
69172;SDS011;56280;49.662;8.408;2023-09-08T09:03:42;7.47;;;4.90;;
69172;SDS011;56280;49.662;8.408;2023-09-08T09:06:10;7.70;;;5.03;;
69172;SDS011;56280;49.662;8.408;2023-09-08T09:08:35;9.27;;;5.18;;
69172;SDS011;56280;49.662;8.408;2023-09-08T09:11:02;7.18;;;4.70;;
69172;SDS011;56280;49.662;8.408;2023-09-08T09:13:27;6.63;;;4.73;;
69172;SDS011;56280;49.662;8.408;2023-09-08T09:15:53;7.83;;;4.90;;
69172;SDS011;56280;49.662;8.408;2023-09-08T09:18:23;6.50;;;4.80;;
69172;SDS011;56280;49.662;8.408;2023-09-08T09:20:55;8.67;;;5.20;;
69172;SDS011;56280;49.662;8.408;2023-09-08T09:23:28;8.80;;;5.10;;
69172;SDS011;56280;49.662;8.408;2023-09-08T09:25:54;8.63;;;4.65;;
69172;SDS011;56280;49.662;8.408;2023-09-08T09:28:19;8.07;;;5.03;;
69172;SDS011;56280;49.662;8.408;2023-09-08T09:30:48;8.57;;;5.00;;
69172;SDS011;56280;49.662;8.408;2023-09-08T09:33:16;6.53;;;4.70;;
69172;SDS011;56280;49.662;8.408;2023-09-08T09:35:42;8.77;;;4.80;;
69172;SDS011;56280;49.662;8.408;2023-09-08T09:38:10;7.65;;;4.93;;
69172;SDS011;56280;49.662;8.408;2023-09-08T09:40:36;7.53;;;4.63;;
69172;SDS011;56280;49.662;8.408;2023-09-08T09:43:02;9.35;;;4.88;;
69172;SDS011;56280;49.662;8.408;2023-09-08T09:45:29;8.60;;;5.00;;
69172;SDS011;56280;49.662;8.408;2023-09-08T09:47:55;8.90;;;4.80;;
69172;SDS011;56280;49.662;8.408;2023-09-08T09:53:00;8.70;;;4.70;;
69172;SDS011;56280;49.662;8.408;2023-09-08T09:55:26;7.40;;;4.90;;
69172;SDS011;56280;49.662;8.408;2023-09-08T09:57:56;7.50;;;4.70;;
69172;SDS011;56280;49.662;8.408;2023-09-08T10:00:24;7.20;;;5.00;;
69172;SDS011;56280;49.662;8.408;2023-09-08T10:02:51;9.27;;;4.80;;
69172;SDS011;56280;49.662;8.408;2023-09-08T10:05:16;8.23;;;4.90;;
69172;SDS011;56280;49.662;8.408;2023-09-08T10:07:42;10.33;;;5.30;;
69172;SDS011;56280;49.662;8.408;2023-09-08T10:10:07;7.50;;;4.93;;
69172;SDS011;56280;49.662;8.408;2023-09-08T10:12:34;7.80;;;5.28;;
69172;SDS011;56280;49.662;8.408;2023-09-08T10:15:02;8.18;;;5.30;;
69172;SDS011;56280;49.662;8.408;2023-09-08T10:17:30;9.00;;;4.97;;
69172;SDS011;56280;49.662;8.408;2023-09-08T10:19:56;8.33;;;4.80;;
69172;SDS011;56280;49.662;8.408;2023-09-08T10:22:26;8.30;;;5.00;;
69172;SDS011;56280;49.662;8.408;2023-09-08T10:24:55;7.57;;;4.82;;
69172;SDS011;56280;49.662;8.408;2023-09-08T10:27:23;8.27;;;4.90;;
69172;SDS011;56280;49.662;8.408;2023-09-08T10:29:49;7.13;;;5.00;;
69172;SDS011;56280;49.662;8.408;2023-09-08T10:32:15;7.50;;;5.10;;
69172;SDS011;56280;49.662;8.408;2023-09-08T10:34:42;9.48;;;5.20;;
69172;SDS011;56280;49.662;8.408;2023-09-08T10:37:22;9.63;;;5.10;;
69172;SDS011;56280;49.662;8.408;2023-09-08T10:39:52;9.25;;;4.93;;
69172;SDS011;56280;49.662;8.408;2023-09-08T10:42:19;7.32;;;4.72;;
69172;SDS011;56280;49.662;8.408;2023-09-08T10:47:14;9.30;;;4.90;;
69172;SDS011;56280;49.662;8.408;2023-09-08T10:49:44;7.90;;;5.07;;
69172;SDS011;56280;49.662;8.408;2023-09-08T10:52:10;9.63;;;5.13;;
69172;SDS011;56280;49.662;8.408;2023-09-08T10:54:42;8.23;;;5.00;;
69172;SDS011;56280;49.662;8.408;2023-09-08T10:57:15;7.77;;;5.10;;
69172;SDS011;56280;49.662;8.408;2023-09-08T10:59:48;10.20;;;5.28;;
69172;SDS011;56280;49.662;8.408;2023-09-08T11:05:09;7.47;;;4.90;;
69172;SDS011;56280;49.662;8.408;2023-09-08T11:07:36;8.68;;;5.15;;
69172;SDS011;56280;49.662;8.408;2023-09-08T11:10:03;7.75;;;5.05;;
69172;SDS011;56280;49.662;8.408;2023-09-08T11:12:29;7.90;;;5.10;;
69172;SDS011;56280;49.662;8.408;2023-09-08T11:14:55;8.23;;;4.82;;
69172;SDS011;56280;49.662;8.408;2023-09-08T11:17:20;7.50;;;4.83;;
69172;SDS011;56280;49.662;8.408;2023-09-08T11:19:50;8.15;;;5.15;;
69172;SDS011;56280;49.662;8.408;2023-09-08T11:22:17;9.50;;;4.80;;
69172;SDS011;56280;49.662;8.408;2023-09-08T11:24:42;7.63;;;4.75;;
69172;SDS011;56280;49.662;8.408;2023-09-08T11:27:09;7.63;;;5.15;;
69172;SDS011;56280;49.662;8.408;2023-09-08T11:29:38;7.00;;;4.83;;
69172;SDS011;56280;49.662;8.408;2023-09-08T11:32:06;7.68;;;5.00;;
69172;SDS011;56280;49.662;8.408;2023-09-08T11:34:32;7.28;;;5.00;;
69172;SDS011;56280;49.662;8.408;2023-09-08T11:36:58;7.33;;;5.00;;
69172;SDS011;56280;49.662;8.408;2023-09-08T11:39:24;8.10;;;4.90;;
69172;SDS011;56280;49.662;8.408;2023-09-08T11:41:50;7.80;;;4.80;;
69172;SDS011;56280;49.662;8.408;2023-09-08T11:44:17;6.97;;;4.70;;
69172;SDS011;56280;49.662;8.408;2023-09-08T11:46:43;9.93;;;4.75;;
69172;SDS011;56280;49.662;8.408;2023-09-08T11:49:08;10.33;;;4.90;;
69172;SDS011;56280;49.662;8.408;2023-09-08T11:51:34;7.87;;;4.93;;
69172;SDS011;56280;49.662;8.408;2023-09-08T11:53:59;7.80;;;4.93;;
69172;SDS011;56280;49.662;8.408;2023-09-08T11:56:24;7.43;;;4.90;;
69172;SDS011;56280;49.662;8.408;2023-09-08T11:58:50;8.27;;;5.20;;
69172;SDS011;56280;49.662;8.408;2023-09-08T12:01:17;9.40;;;5.28;;
69172;SDS011;56280;49.662;8.408;2023-09-08T12:03:55;7.63;;;4.68;;
69172;SDS011;56280;49.662;8.408;2023-09-08T12:06:27;8.48;;;5.10;;
69172;SDS011;56280;49.662;8.408;2023-09-08T12:08:56;7.97;;;4.95;;
69172;SDS011;56280;49.662;8.408;2023-09-08T12:11:32;7.47;;;4.97;;
69172;SDS011;56280;49.662;8.408;2023-09-08T12:14:00;8.02;;;5.00;;
69172;SDS011;56280;49.662;8.408;2023-09-08T12:16:26;7.55;;;4.95;;
69172;SDS011;56280;49.662;8.408;2023-09-08T12:18:51;8.23;;;5.17;;
69172;SDS011;56280;49.662;8.408;2023-09-08T12:21:17;8.37;;;5.20;;
69172;SDS011;56280;49.662;8.408;2023-09-08T12:23:49;8.77;;;5.53;;
69172;SDS011;56280;49.662;8.408;2023-09-08T12:26:15;9.25;;;5.10;;
69172;SDS011;56280;49.662;8.408;2023-09-08T12:28:44;6.78;;;5.13;;
69172;SDS011;56280;49.662;8.408;2023-09-08T12:31:10;7.50;;;5.25;;
69172;SDS011;56280;49.662;8.408;2023-09-08T12:33:38;11.13;;;5.10;;
69172;SDS011;56280;49.662;8.408;2023-09-08T12:36:10;7.50;;;4.80;;
69172;SDS011;56280;49.662;8.408;2023-09-08T12:38:39;7.30;;;5.13;;
69172;SDS011;56280;49.662;8.408;2023-09-08T12:41:05;7.47;;;4.93;;
69172;SDS011;56280;49.662;8.408;2023-09-08T12:43:30;8.50;;;5.20;;
69172;SDS011;56280;49.662;8.408;2023-09-08T12:45:55;7.10;;;5.10;;
69172;SDS011;56280;49.662;8.408;2023-09-08T12:48:21;7.70;;;5.00;;
69172;SDS011;56280;49.662;8.408;2023-09-08T12:50:47;8.50;;;4.90;;
69172;SDS011;56280;49.662;8.408;2023-09-08T12:53:15;7.40;;;5.28;;
69172;SDS011;56280;49.662;8.408;2023-09-08T12:59:06;7.30;;;5.00;;
69172;SDS011;56280;49.662;8.408;2023-09-08T13:08:15;7.35;;;5.05;;
69172;SDS011;56280;49.662;8.408;2023-09-08T13:17:24;7.70;;;5.15;;
69172;SDS011;56280;49.662;8.408;2023-09-08T13:19:49;7.80;;;5.10;;
69172;SDS011;56280;49.662;8.408;2023-09-08T13:22:14;8.43;;;5.03;;
69172;SDS011;56280;49.662;8.408;2023-09-08T13:24:40;7.43;;;5.03;;
69172;SDS011;56280;49.662;8.408;2023-09-08T13:27:05;8.43;;;5.67;;
69172;SDS011;56280;49.662;8.408;2023-09-08T13:29:31;9.10;;;5.13;;
69172;SDS011;56280;49.662;8.408;2023-09-08T13:31:56;7.03;;;5.23;;
69172;SDS011;56280;49.662;8.408;2023-09-08T13:34:22;8.07;;;5.00;;
69172;SDS011;56280;49.662;8.408;2023-09-08T13:36:47;7.77;;;5.10;;
69172;SDS011;56280;49.662;8.408;2023-09-08T13:39:13;7.50;;;5.10;;
69172;SDS011;56280;49.662;8.408;2023-09-08T13:41:54;7.60;;;4.90;;
69172;SDS011;56280;49.662;8.408;2023-09-08T13:44:21;7.25;;;5.25;;
69172;SDS011;56280;49.662;8.408;2023-09-08T13:50:10;8.15;;;5.20;;
69172;SDS011;56280;49.662;8.408;2023-09-08T13:55:57;7.10;;;5.18;;
69172;SDS011;56280;49.662;8.408;2023-09-08T14:01:50;8.00;;;5.30;;
69172;SDS011;56280;49.662;8.408;2023-09-08T14:04:15;7.97;;;5.20;;
69172;SDS011;56280;49.662;8.408;2023-09-08T14:06:40;8.80;;;5.20;;
69172;SDS011;56280;49.662;8.408;2023-09-08T14:09:05;7.05;;;5.10;;
69172;SDS011;56280;49.662;8.408;2023-09-08T14:11:31;7.50;;;5.07;;
69172;SDS011;56280;49.662;8.408;2023-09-08T14:13:56;7.77;;;5.13;;
69172;SDS011;56280;49.662;8.408;2023-09-08T14:16:21;7.70;;;5.20;;
69172;SDS011;56280;49.662;8.408;2023-09-08T14:18:46;7.77;;;5.20;;
69172;SDS011;56280;49.662;8.408;2023-09-08T14:21:12;7.97;;;4.90;;
69172;SDS011;56280;49.662;8.408;2023-09-08T14:23:37;7.67;;;5.57;;
69172;SDS011;56280;49.662;8.408;2023-09-08T14:26:03;7.60;;;4.82;;
69172;SDS011;56280;49.662;8.408;2023-09-08T14:28:29;9.60;;;5.20;;
69172;SDS011;56280;49.662;8.408;2023-09-08T14:30:57;8.57;;;5.07;;
69172;SDS011;56280;49.662;8.408;2023-09-08T14:33:22;9.33;;;5.20;;
69172;SDS011;56280;49.662;8.408;2023-09-08T14:35:47;7.20;;;4.90;;
69172;SDS011;56280;49.662;8.408;2023-09-08T14:38:16;6.90;;;5.18;;
69172;SDS011;56280;49.662;8.408;2023-09-08T14:40:42;7.60;;;5.00;;
69172;SDS011;56280;49.662;8.408;2023-09-08T14:43:07;8.90;;;5.10;;
69172;SDS011;56280;49.662;8.408;2023-09-08T14:45:32;9.13;;;4.90;;
69172;SDS011;56280;49.662;8.408;2023-09-08T14:51:20;8.32;;;4.90;;
69172;SDS011;56280;49.662;8.408;2023-09-08T14:53:45;7.53;;;4.97;;
69172;SDS011;56280;49.662;8.408;2023-09-08T14:56:10;9.03;;;5.00;;
69172;SDS011;56280;49.662;8.408;2023-09-08T14:58:36;7.60;;;4.90;;
69172;SDS011;56280;49.662;8.408;2023-09-08T15:01:01;7.13;;;4.80;;
69172;SDS011;56280;49.662;8.408;2023-09-08T15:03:30;6.72;;;5.13;;
69172;SDS011;56280;49.662;8.408;2023-09-08T15:05:56;7.18;;;5.05;;
69172;SDS011;56280;49.662;8.408;2023-09-08T15:08:21;7.50;;;4.90;;
69172;SDS011;56280;49.662;8.408;2023-09-08T15:10:46;8.20;;;5.30;;
69172;SDS011;56280;49.662;8.408;2023-09-08T15:13:12;7.53;;;5.03;;
69172;SDS011;56280;49.662;8.408;2023-09-08T15:15:37;8.50;;;5.00;;
69172;SDS011;56280;49.662;8.408;2023-09-08T15:18:02;7.43;;;5.00;;
69172;SDS011;56280;49.662;8.408;2023-09-08T15:20:28;8.57;;;5.17;;
69172;SDS011;56280;49.662;8.408;2023-09-08T15:22:53;7.30;;;4.90;;